sensor_id;sensor_type;location;lat;lon;timestamp;temperature;humidity
55634;DHT22;41504;53.162;6.788;2023-09-07T00:00:30;21.90;78.50
55634;DHT22;41504;53.162;6.788;2023-09-07T00:02:56;21.90;78.60
55634;DHT22;41504;53.162;6.788;2023-09-07T00:05:21;21.80;78.50
55634;DHT22;41504;53.162;6.788;2023-09-07T00:07:47;21.80;78.60
55634;DHT22;41504;53.162;6.788;2023-09-07T00:10:13;21.80;78.60
55634;DHT22;41504;53.162;6.788;2023-09-07T00:12:39;21.70;78.50
55634;DHT22;41504;53.162;6.788;2023-09-07T00:15:08;21.70;78.40
55634;DHT22;41504;53.162;6.788;2023-09-07T00:17:42;21.70;78.60
55634;DHT22;41504;53.162;6.788;2023-09-07T00:20:08;21.60;78.70
55634;DHT22;41504;53.162;6.788;2023-09-07T00:22:40;21.60;78.50
55634;DHT22;41504;53.162;6.788;2023-09-07T00:25:09;21.60;78.70
55634;DHT22;41504;53.162;6.788;2023-09-07T00:27:35;21.50;78.80
55634;DHT22;41504;53.162;6.788;2023-09-07T00:30:02;21.50;78.80
55634;DHT22;41504;53.162;6.788;2023-09-07T00:32:32;21.50;79.10
55634;DHT22;41504;53.162;6.788;2023-09-07T00:34:57;21.40;79.20
55634;DHT22;41504;53.162;6.788;2023-09-07T00:37:23;21.40;79.40
55634;DHT22;41504;53.162;6.788;2023-09-07T00:39:49;21.40;79.40
55634;DHT22;41504;53.162;6.788;2023-09-07T00:42:15;21.30;79.50
55634;DHT22;41504;53.162;6.788;2023-09-07T00:44:41;21.30;79.40
55634;DHT22;41504;53.162;6.788;2023-09-07T00:47:07;21.30;79.60
55634;DHT22;41504;53.162;6.788;2023-09-07T00:49:32;21.20;79.60
55634;DHT22;41504;53.162;6.788;2023-09-07T00:51:58;21.20;79.70
55634;DHT22;41504;53.162;6.788;2023-09-07T00:54:24;21.20;79.90
55634;DHT22;41504;53.162;6.788;2023-09-07T00:56:50;21.10;79.80
55634;DHT22;41504;53.162;6.788;2023-09-07T00:59:16;21.10;79.90
55634;DHT22;41504;53.162;6.788;2023-09-07T01:01:41;21.10;79.90
55634;DHT22;41504;53.162;6.788;2023-09-07T01:04:08;21.00;80.00
55634;DHT22;41504;53.162;6.788;2023-09-07T01:06:57;21.00;80.00
55634;DHT22;41504;53.162;6.788;2023-09-07T01:09:27;21.00;80.10
55634;DHT22;41504;53.162;6.788;2023-09-07T01:11:54;20.90;80.10
55634;DHT22;41504;53.162;6.788;2023-09-07T01:14:19;20.90;80.00
55634;DHT22;41504;53.162;6.788;2023-09-07T01:16:45;20.90;80.30
55634;DHT22;41504;53.162;6.788;2023-09-07T01:19:11;20.90;80.40
55634;DHT22;41504;53.162;6.788;2023-09-07T01:21:38;20.80;80.30
55634;DHT22;41504;53.162;6.788;2023-09-07T01:24:08;20.90;80.60
55634;DHT22;41504;53.162;6.788;2023-09-07T01:26:35;20.80;80.60
55634;DHT22;41504;53.162;6.788;2023-09-07T01:29:09;20.70;80.70
55634;DHT22;41504;53.162;6.788;2023-09-07T01:31:38;20.70;80.70
55634;DHT22;41504;53.162;6.788;2023-09-07T01:34:05;20.70;80.70
55634;DHT22;41504;53.162;6.788;2023-09-07T01:36:34;20.60;80.70
55634;DHT22;41504;53.162;6.788;2023-09-07T01:39:01;20.60;80.70
55634;DHT22;41504;53.162;6.788;2023-09-07T01:41:26;20.60;80.80
55634;DHT22;41504;53.162;6.788;2023-09-07T01:43:53;20.60;80.90
55634;DHT22;41504;53.162;6.788;2023-09-07T01:46:18;20.60;80.90
55634;DHT22;41504;53.162;6.788;2023-09-07T01:48:44;20.50;80.90
55634;DHT22;41504;53.162;6.788;2023-09-07T01:51:10;20.50;80.70
55634;DHT22;41504;53.162;6.788;2023-09-07T01:53:38;20.50;80.90
55634;DHT22;41504;53.162;6.788;2023-09-07T01:56:04;20.50;80.90
55634;DHT22;41504;53.162;6.788;2023-09-07T01:58:30;20.40;80.80
55634;DHT22;41504;53.162;6.788;2023-09-07T02:00:59;20.40;80.80
55634;DHT22;41504;53.162;6.788;2023-09-07T02:03:25;20.40;80.80
55634;DHT22;41504;53.162;6.788;2023-09-07T02:05:53;20.40;81.00
55634;DHT22;41504;53.162;6.788;2023-09-07T02:08:19;20.30;81.00
55634;DHT22;41504;53.162;6.788;2023-09-07T02:10:45;20.30;80.90
55634;DHT22;41504;53.162;6.788;2023-09-07T02:13:10;20.30;80.80
55634;DHT22;41504;53.162;6.788;2023-09-07T02:15:37;20.30;80.90
55634;DHT22;41504;53.162;6.788;2023-09-07T02:18:07;20.20;81.00
55634;DHT22;41504;53.162;6.788;2023-09-07T02:20:33;20.30;81.00
55634;DHT22;41504;53.162;6.788;2023-09-07T02:22:59;20.30;81.00
55634;DHT22;41504;53.162;6.788;2023-09-07T02:25:25;20.20;81.00
55634;DHT22;41504;53.162;6.788;2023-09-07T02:27:50;20.20;81.10
55634;DHT22;41504;53.162;6.788;2023-09-07T02:30:16;20.20;81.10
55634;DHT22;41504;53.162;6.788;2023-09-07T02:32:43;20.20;81.20
55634;DHT22;41504;53.162;6.788;2023-09-07T02:35:09;20.10;81.20
55634;DHT22;41504;53.162;6.788;2023-09-07T02:37:38;20.10;81.40
55634;DHT22;41504;53.162;6.788;2023-09-07T02:40:04;20.10;81.50
55634;DHT22;41504;53.162;6.788;2023-09-07T02:42:39;20.10;81.60
55634;DHT22;41504;53.162;6.788;2023-09-07T02:45:05;20.00;81.70
55634;DHT22;41504;53.162;6.788;2023-09-07T02:47:30;20.00;81.80
55634;DHT22;41504;53.162;6.788;2023-09-07T02:49:56;20.00;81.80
55634;DHT22;41504;53.162;6.788;2023-09-07T02:52:22;20.00;81.90
55634;DHT22;41504;53.162;6.788;2023-09-07T02:54:48;19.90;81.80
55634;DHT22;41504;53.162;6.788;2023-09-07T02:57:16;19.90;81.90
55634;DHT22;41504;53.162;6.788;2023-09-07T02:59:42;19.90;81.90
55634;DHT22;41504;53.162;6.788;2023-09-07T03:02:08;19.90;82.00
55634;DHT22;41504;53.162;6.788;2023-09-07T03:04:35;19.90;82.00
55634;DHT22;41504;53.162;6.788;2023-09-07T03:07:01;19.80;82.10
55634;DHT22;41504;53.162;6.788;2023-09-07T03:09:30;19.80;82.30
55634;DHT22;41504;53.162;6.788;2023-09-07T03:11:56;19.80;82.30
55634;DHT22;41504;53.162;6.788;2023-09-07T03:14:21;19.80;82.20
55634;DHT22;41504;53.162;6.788;2023-09-07T03:16:50;19.70;82.20
55634;DHT22;41504;53.162;6.788;2023-09-07T03:19:16;19.70;82.30
55634;DHT22;41504;53.162;6.788;2023-09-07T03:21:42;19.70;82.20
55634;DHT22;41504;53.162;6.788;2023-09-07T03:24:07;19.70;82.20
55634;DHT22;41504;53.162;6.788;2023-09-07T03:26:33;19.70;82.30
55634;DHT22;41504;53.162;6.788;2023-09-07T03:29:00;19.70;82.30
55634;DHT22;41504;53.162;6.788;2023-09-07T03:31:26;19.70;82.30
55634;DHT22;41504;53.162;6.788;2023-09-07T03:33:51;19.70;82.80
55634;DHT22;41504;53.162;6.788;2023-09-07T03:36:17;19.70;82.40
55634;DHT22;41504;53.162;6.788;2023-09-07T03:38:43;19.70;82.50
55634;DHT22;41504;53.162;6.788;2023-09-07T03:41:09;19.60;82.40
55634;DHT22;41504;53.162;6.788;2023-09-07T03:43:35;19.60;82.60
55634;DHT22;41504;53.162;6.788;2023-09-07T03:46:01;19.60;82.60
55634;DHT22;41504;53.162;6.788;2023-09-07T03:48:26;19.60;82.80
55634;DHT22;41504;53.162;6.788;2023-09-07T03:50:52;19.60;82.70
55634;DHT22;41504;53.162;6.788;2023-09-07T03:53:17;19.50;82.60
55634;DHT22;41504;53.162;6.788;2023-09-07T03:55:44;19.50;82.70
55634;DHT22;41504;53.162;6.788;2023-09-07T03:58:11;19.50;83.00
55634;DHT22;41504;53.162;6.788;2023-09-07T04:00:44;19.50;83.00
55634;DHT22;41504;53.162;6.788;2023-09-07T04:03:10;19.50;83.20
55634;DHT22;41504;53.162;6.788;2023-09-07T04:05:39;19.40;83.20
55634;DHT22;41504;53.162;6.788;2023-09-07T04:08:05;19.40;83.30
55634;DHT22;41504;53.162;6.788;2023-09-07T04:10:31;19.30;83.40
55634;DHT22;41504;53.162;6.788;2023-09-07T04:12:57;19.30;83.60
55634;DHT22;41504;53.162;6.788;2023-09-07T04:15:23;19.30;83.60
55634;DHT22;41504;53.162;6.788;2023-09-07T04:17:50;19.30;83.70
55634;DHT22;41504;53.162;6.788;2023-09-07T04:20:16;19.20;83.80
55634;DHT22;41504;53.162;6.788;2023-09-07T04:22:42;19.20;83.80
55634;DHT22;41504;53.162;6.788;2023-09-07T04:25:08;19.20;83.90
55634;DHT22;41504;53.162;6.788;2023-09-07T04:27:34;19.20;83.80
55634;DHT22;41504;53.162;6.788;2023-09-07T04:30:00;19.20;83.90
55634;DHT22;41504;53.162;6.788;2023-09-07T04:32:26;19.10;83.90
55634;DHT22;41504;53.162;6.788;2023-09-07T04:34:57;19.10;83.90
55634;DHT22;41504;53.162;6.788;2023-09-07T04:37:25;19.10;83.90
55634;DHT22;41504;53.162;6.788;2023-09-07T04:39:53;19.10;84.00
55634;DHT22;41504;53.162;6.788;2023-09-07T04:42:20;19.10;84.00
55634;DHT22;41504;53.162;6.788;2023-09-07T04:44:47;19.10;83.90
55634;DHT22;41504;53.162;6.788;2023-09-07T04:47:13;19.10;84.00
55634;DHT22;41504;53.162;6.788;2023-09-07T04:49:39;19.00;84.10
55634;DHT22;41504;53.162;6.788;2023-09-07T04:52:05;19.00;84.00
55634;DHT22;41504;53.162;6.788;2023-09-07T04:54:30;19.00;84.20
55634;DHT22;41504;53.162;6.788;2023-09-07T04:56:56;19.00;84.10
55634;DHT22;41504;53.162;6.788;2023-09-07T04:59:22;19.00;84.20
55634;DHT22;41504;53.162;6.788;2023-09-07T05:01:47;18.90;84.30
55634;DHT22;41504;53.162;6.788;2023-09-07T05:04:13;18.90;84.40
55634;DHT22;41504;53.162;6.788;2023-09-07T05:06:39;18.90;84.50
55634;DHT22;41504;53.162;6.788;2023-09-07T05:09:07;18.90;84.60
55634;DHT22;41504;53.162;6.788;2023-09-07T05:11:32;18.90;84.60
55634;DHT22;41504;53.162;6.788;2023-09-07T05:14:02;18.90;84.70
55634;DHT22;41504;53.162;6.788;2023-09-07T05:16:28;18.80;85.30
55634;DHT22;41504;53.162;6.788;2023-09-07T05:18:53;18.80;84.90
55634;DHT22;41504;53.162;6.788;2023-09-07T05:21:19;18.80;85.00
55634;DHT22;41504;53.162;6.788;2023-09-07T05:23:46;18.80;85.10
55634;DHT22;41504;53.162;6.788;2023-09-07T05:26:12;18.80;85.10
55634;DHT22;41504;53.162;6.788;2023-09-07T05:28:40;18.80;85.20
55634;DHT22;41504;53.162;6.788;2023-09-07T05:31:09;18.80;85.40
55634;DHT22;41504;53.162;6.788;2023-09-07T05:33:35;18.80;85.30
55634;DHT22;41504;53.162;6.788;2023-09-07T05:36:01;18.80;85.30
55634;DHT22;41504;53.162;6.788;2023-09-07T05:38:27;18.80;85.10
55634;DHT22;41504;53.162;6.788;2023-09-07T05:40:53;18.90;85.80
55634;DHT22;41504;53.162;6.788;2023-09-07T05:43:20;18.90;85.40
55634;DHT22;41504;53.162;6.788;2023-09-07T05:45:46;18.90;85.30
55634;DHT22;41504;53.162;6.788;2023-09-07T05:48:12;18.90;85.30
55634;DHT22;41504;53.162;6.788;2023-09-07T05:50:38;19.00;85.20
55634;DHT22;41504;53.162;6.788;2023-09-07T05:53:05;19.00;85.20
55634;DHT22;41504;53.162;6.788;2023-09-07T05:55:30;19.00;85.00
55634;DHT22;41504;53.162;6.788;2023-09-07T05:57:57;19.00;85.20
55634;DHT22;41504;53.162;6.788;2023-09-07T06:00:23;19.10;85.00
55634;DHT22;41504;53.162;6.788;2023-09-07T06:02:49;19.10;85.00
55634;DHT22;41504;53.162;6.788;2023-09-07T06:05:15;19.10;84.90
55634;DHT22;41504;53.162;6.788;2023-09-07T06:07:41;19.10;84.70
55634;DHT22;41504;53.162;6.788;2023-09-07T06:10:07;19.20;84.80
55634;DHT22;41504;53.162;6.788;2023-09-07T06:12:33;19.20;84.80
55634;DHT22;41504;53.162;6.788;2023-09-07T06:15:00;19.20;84.60
55634;DHT22;41504;53.162;6.788;2023-09-07T06:17:27;19.30;84.60
55634;DHT22;41504;53.162;6.788;2023-09-07T06:19:54;19.30;84.50
55634;DHT22;41504;53.162;6.788;2023-09-07T06:22:20;19.30;84.30
55634;DHT22;41504;53.162;6.788;2023-09-07T06:24:46;19.40;84.30
55634;DHT22;41504;53.162;6.788;2023-09-07T06:27:11;19.40;84.10
55634;DHT22;41504;53.162;6.788;2023-09-07T06:29:37;19.40;84.00
55634;DHT22;41504;53.162;6.788;2023-09-07T06:32:05;19.50;84.00
55634;DHT22;41504;53.162;6.788;2023-09-07T06:34:33;19.50;83.80
55634;DHT22;41504;53.162;6.788;2023-09-07T06:36:58;19.50;83.90
55634;DHT22;41504;53.162;6.788;2023-09-07T06:39:24;19.60;83.80
55634;DHT22;41504;53.162;6.788;2023-09-07T06:41:50;19.60;83.60
55634;DHT22;41504;53.162;6.788;2023-09-07T06:44:15;19.70;83.50
55634;DHT22;41504;53.162;6.788;2023-09-07T06:46:41;19.70;83.30
55634;DHT22;41504;53.162;6.788;2023-09-07T06:49:07;19.80;83.20
55634;DHT22;41504;53.162;6.788;2023-09-07T06:51:33;19.90;83.20
55634;DHT22;41504;53.162;6.788;2023-09-07T06:53:59;19.90;83.10
55634;DHT22;41504;53.162;6.788;2023-09-07T06:56:25;19.90;83.10
55634;DHT22;41504;53.162;6.788;2023-09-07T06:58:52;20.00;83.10
55634;DHT22;41504;53.162;6.788;2023-09-07T07:01:18;20.00;82.80
55634;DHT22;41504;53.162;6.788;2023-09-07T07:03:44;20.10;82.70
55634;DHT22;41504;53.162;6.788;2023-09-07T07:06:10;20.20;82.50
55634;DHT22;41504;53.162;6.788;2023-09-07T07:08:35;20.20;82.30
55634;DHT22;41504;53.162;6.788;2023-09-07T07:11:01;20.20;82.10
55634;DHT22;41504;53.162;6.788;2023-09-07T07:13:27;20.30;81.90
55634;DHT22;41504;53.162;6.788;2023-09-07T07:15:53;20.40;81.80
55634;DHT22;41504;53.162;6.788;2023-09-07T07:18:18;20.40;82.10
55634;DHT22;41504;53.162;6.788;2023-09-07T07:20:44;20.50;81.50
55634;DHT22;41504;53.162;6.788;2023-09-07T07:23:10;20.60;81.40
55634;DHT22;41504;53.162;6.788;2023-09-07T07:25:39;20.70;81.20
55634;DHT22;41504;53.162;6.788;2023-09-07T07:28:05;20.80;81.10
55634;DHT22;41504;53.162;6.788;2023-09-07T07:30:39;20.80;81.10
55634;DHT22;41504;53.162;6.788;2023-09-07T07:33:08;20.90;80.90
55634;DHT22;41504;53.162;6.788;2023-09-07T07:35:35;21.10;80.70
55634;DHT22;41504;53.162;6.788;2023-09-07T07:38:02;21.20;80.40
55634;DHT22;41504;53.162;6.788;2023-09-07T07:40:34;21.30;80.30
55634;DHT22;41504;53.162;6.788;2023-09-07T07:43:00;21.40;80.10
55634;DHT22;41504;53.162;6.788;2023-09-07T07:45:26;21.40;79.90
55634;DHT22;41504;53.162;6.788;2023-09-07T07:47:52;21.50;80.00
55634;DHT22;41504;53.162;6.788;2023-09-07T07:50:18;21.60;80.00
55634;DHT22;41504;53.162;6.788;2023-09-07T07:52:44;21.70;80.00
55634;DHT22;41504;53.162;6.788;2023-09-07T07:55:11;21.80;79.90
55634;DHT22;41504;53.162;6.788;2023-09-07T07:57:37;21.90;79.80
55634;DHT22;41504;53.162;6.788;2023-09-07T08:00:04;22.00;79.70
55634;DHT22;41504;53.162;6.788;2023-09-07T08:02:30;22.10;79.90
55634;DHT22;41504;53.162;6.788;2023-09-07T08:04:57;22.20;79.60
55634;DHT22;41504;53.162;6.788;2023-09-07T08:07:25;22.20;79.30
55634;DHT22;41504;53.162;6.788;2023-09-07T08:09:52;22.30;79.20
55634;DHT22;41504;53.162;6.788;2023-09-07T08:12:17;22.40;79.00
55634;DHT22;41504;53.162;6.788;2023-09-07T08:14:43;22.40;78.80
55634;DHT22;41504;53.162;6.788;2023-09-07T08:17:09;22.50;78.70
55634;DHT22;41504;53.162;6.788;2023-09-07T08:19:35;22.50;78.10
55634;DHT22;41504;53.162;6.788;2023-09-07T08:22:01;22.60;77.70
55634;DHT22;41504;53.162;6.788;2023-09-07T08:24:29;22.70;77.60
55634;DHT22;41504;53.162;6.788;2023-09-07T08:26:55;22.70;77.20
55634;DHT22;41504;53.162;6.788;2023-09-07T08:29:23;22.80;76.90
55634;DHT22;41504;53.162;6.788;2023-09-07T08:31:56;22.90;77.00
55634;DHT22;41504;53.162;6.788;2023-09-07T08:34:23;22.90;76.40
55634;DHT22;41504;53.162;6.788;2023-09-07T08:36:49;23.00;76.30
55634;DHT22;41504;53.162;6.788;2023-09-07T08:39:21;23.00;76.10
55634;DHT22;41504;53.162;6.788;2023-09-07T08:41:48;23.10;75.90
55634;DHT22;41504;53.162;6.788;2023-09-07T08:44:16;23.20;75.80
55634;DHT22;41504;53.162;6.788;2023-09-07T08:46:43;23.30;75.50
55634;DHT22;41504;53.162;6.788;2023-09-07T08:49:10;23.30;75.30
55634;DHT22;41504;53.162;6.788;2023-09-07T08:51:37;23.40;75.10
55634;DHT22;41504;53.162;6.788;2023-09-07T08:54:07;23.40;74.70
55634;DHT22;41504;53.162;6.788;2023-09-07T08:56:34;23.50;74.70
55634;DHT22;41504;53.162;6.788;2023-09-07T08:58:59;23.50;74.00
55634;DHT22;41504;53.162;6.788;2023-09-07T09:01:25;23.60;74.00
55634;DHT22;41504;53.162;6.788;2023-09-07T09:03:51;23.60;73.70
55634;DHT22;41504;53.162;6.788;2023-09-07T09:06:20;23.70;73.60
55634;DHT22;41504;53.162;6.788;2023-09-07T09:08:48;23.70;73.40
55634;DHT22;41504;53.162;6.788;2023-09-07T09:11:18;23.80;73.20
55634;DHT22;41504;53.162;6.788;2023-09-07T09:13:44;23.80;73.00
55634;DHT22;41504;53.162;6.788;2023-09-07T09:16:10;23.90;72.90
55634;DHT22;41504;53.162;6.788;2023-09-07T09:18:37;24.00;72.80
55634;DHT22;41504;53.162;6.788;2023-09-07T09:21:03;24.00;72.80
55634;DHT22;41504;53.162;6.788;2023-09-07T09:23:35;24.10;72.50
55634;DHT22;41504;53.162;6.788;2023-09-07T09:26:02;24.20;72.20
55634;DHT22;41504;53.162;6.788;2023-09-07T09:28:33;24.20;71.90
55634;DHT22;41504;53.162;6.788;2023-09-07T09:31:03;24.30;71.70
55634;DHT22;41504;53.162;6.788;2023-09-07T09:33:32;24.40;71.50
55634;DHT22;41504;53.162;6.788;2023-09-07T09:36:01;24.40;71.20
55634;DHT22;41504;53.162;6.788;2023-09-07T09:38:28;24.50;71.00
55634;DHT22;41504;53.162;6.788;2023-09-07T09:40:54;24.60;70.90
55634;DHT22;41504;53.162;6.788;2023-09-07T09:43:20;24.70;70.70
55634;DHT22;41504;53.162;6.788;2023-09-07T09:45:47;24.70;70.60
55634;DHT22;41504;53.162;6.788;2023-09-07T09:48:16;24.80;70.20
55634;DHT22;41504;53.162;6.788;2023-09-07T09:50:44;24.90;70.00
55634;DHT22;41504;53.162;6.788;2023-09-07T09:53:12;24.90;69.60
55634;DHT22;41504;53.162;6.788;2023-09-07T09:55:41;25.00;69.00
55634;DHT22;41504;53.162;6.788;2023-09-07T09:58:07;25.00;68.70
55634;DHT22;41504;53.162;6.788;2023-09-07T10:00:33;25.10;68.50
55634;DHT22;41504;53.162;6.788;2023-09-07T10:03:13;25.20;68.40
55634;DHT22;41504;53.162;6.788;2023-09-07T10:05:40;25.30;67.50
55634;DHT22;41504;53.162;6.788;2023-09-07T10:08:12;25.30;67.00
55634;DHT22;41504;53.162;6.788;2023-09-07T10:10:40;25.40;66.50
55634;DHT22;41504;53.162;6.788;2023-09-07T10:13:06;25.50;66.50
55634;DHT22;41504;53.162;6.788;2023-09-07T10:15:32;25.60;66.20
55634;DHT22;41504;53.162;6.788;2023-09-07T10:18:09;25.70;66.00
55634;DHT22;41504;53.162;6.788;2023-09-07T10:20:56;25.70;65.20
55634;DHT22;41504;53.162;6.788;2023-09-07T10:23:44;25.80;64.40
55634;DHT22;41504;53.162;6.788;2023-09-07T10:26:16;25.90;65.00
55634;DHT22;41504;53.162;6.788;2023-09-07T10:28:45;26.00;64.50
55634;DHT22;41504;53.162;6.788;2023-09-07T10:31:16;26.00;64.60
55634;DHT22;41504;53.162;6.788;2023-09-07T10:33:42;26.10;64.50
55634;DHT22;41504;53.162;6.788;2023-09-07T10:36:08;26.10;64.40
55634;DHT22;41504;53.162;6.788;2023-09-07T10:38:35;26.20;64.20
55634;DHT22;41504;53.162;6.788;2023-09-07T10:41:02;26.30;63.80
55634;DHT22;41504;53.162;6.788;2023-09-07T10:43:33;26.40;63.40
55634;DHT22;41504;53.162;6.788;2023-09-07T10:46:00;26.50;62.70
55634;DHT22;41504;53.162;6.788;2023-09-07T10:48:30;26.60;62.20
55634;DHT22;41504;53.162;6.788;2023-09-07T10:50:56;26.70;61.70
55634;DHT22;41504;53.162;6.788;2023-09-07T10:53:31;26.70;62.20
55634;DHT22;41504;53.162;6.788;2023-09-07T10:56:04;26.80;60.30
55634;DHT22;41504;53.162;6.788;2023-09-07T10:58:35;26.90;60.20
55634;DHT22;41504;53.162;6.788;2023-09-07T11:01:02;27.00;59.90
55634;DHT22;41504;53.162;6.788;2023-09-07T11:03:30;27.00;58.80
55634;DHT22;41504;53.162;6.788;2023-09-07T11:08:30;27.20;57.30
55634;DHT22;41504;53.162;6.788;2023-09-07T11:10:56;27.30;58.60
55634;DHT22;41504;53.162;6.788;2023-09-07T11:13:24;27.30;58.80
55634;DHT22;41504;53.162;6.788;2023-09-07T11:15:52;27.40;58.40
55634;DHT22;41504;53.162;6.788;2023-09-07T11:18:22;27.40;58.40
55634;DHT22;41504;53.162;6.788;2023-09-07T11:20:49;27.50;58.00
55634;DHT22;41504;53.162;6.788;2023-09-07T11:23:19;27.60;57.20
55634;DHT22;41504;53.162;6.788;2023-09-07T11:25:47;27.60;56.20
55634;DHT22;41504;53.162;6.788;2023-09-07T11:28:12;27.70;56.50
55634;DHT22;41504;53.162;6.788;2023-09-07T11:30:49;27.70;55.90
55634;DHT22;41504;53.162;6.788;2023-09-07T11:33:16;27.80;56.40
55634;DHT22;41504;53.162;6.788;2023-09-07T11:35:42;27.80;56.20
55634;DHT22;41504;53.162;6.788;2023-09-07T11:38:07;27.90;55.20
55634;DHT22;41504;53.162;6.788;2023-09-07T11:40:35;28.00;55.60
55634;DHT22;41504;53.162;6.788;2023-09-07T11:43:01;28.00;55.30
55634;DHT22;41504;53.162;6.788;2023-09-07T11:45:27;28.10;55.00
55634;DHT22;41504;53.162;6.788;2023-09-07T11:47:53;28.20;54.80
55634;DHT22;41504;53.162;6.788;2023-09-07T11:50:19;28.30;54.50
55634;DHT22;41504;53.162;6.788;2023-09-07T11:52:46;28.30;54.50
55634;DHT22;41504;53.162;6.788;2023-09-07T11:55:14;28.40;55.00
55634;DHT22;41504;53.162;6.788;2023-09-07T11:57:40;28.50;55.20
55634;DHT22;41504;53.162;6.788;2023-09-07T12:00:07;28.50;55.20
55634;DHT22;41504;53.162;6.788;2023-09-07T12:02:35;28.50;54.50
55634;DHT22;41504;53.162;6.788;2023-09-07T12:05:01;28.60;54.10
55634;DHT22;41504;53.162;6.788;2023-09-07T12:07:29;28.60;53.90
55634;DHT22;41504;53.162;6.788;2023-09-07T12:09:56;28.70;53.80
55634;DHT22;41504;53.162;6.788;2023-09-07T12:12:23;28.70;53.70
55634;DHT22;41504;53.162;6.788;2023-09-07T12:14:49;28.80;54.10
55634;DHT22;41504;53.162;6.788;2023-09-07T12:17:15;28.80;53.90
55634;DHT22;41504;53.162;6.788;2023-09-07T12:19:40;28.90;53.80
55634;DHT22;41504;53.162;6.788;2023-09-07T12:22:11;29.00;54.20
55634;DHT22;41504;53.162;6.788;2023-09-07T12:24:37;29.10;53.20
55634;DHT22;41504;53.162;6.788;2023-09-07T12:27:03;29.00;53.20
55634;DHT22;41504;53.162;6.788;2023-09-07T12:29:29;29.10;53.30
55634;DHT22;41504;53.162;6.788;2023-09-07T12:31:55;29.10;52.90
55634;DHT22;41504;53.162;6.788;2023-09-07T12:34:21;29.10;52.40
55634;DHT22;41504;53.162;6.788;2023-09-07T12:36:47;29.10;52.30
55634;DHT22;41504;53.162;6.788;2023-09-07T12:39:13;29.10;51.90
55634;DHT22;41504;53.162;6.788;2023-09-07T12:41:39;29.10;51.90
55634;DHT22;41504;53.162;6.788;2023-09-07T12:44:05;29.20;52.10
55634;DHT22;41504;53.162;6.788;2023-09-07T12:46:31;29.30;52.10
55634;DHT22;41504;53.162;6.788;2023-09-07T12:48:57;29.30;51.60
55634;DHT22;41504;53.162;6.788;2023-09-07T12:51:23;29.30;51.40
55634;DHT22;41504;53.162;6.788;2023-09-07T12:53:49;29.30;51.40
55634;DHT22;41504;53.162;6.788;2023-09-07T12:56:15;29.40;51.60
55634;DHT22;41504;53.162;6.788;2023-09-07T12:58:41;29.50;51.60
55634;DHT22;41504;53.162;6.788;2023-09-07T13:01:08;29.50;50.80
55634;DHT22;41504;53.162;6.788;2023-09-07T13:03:38;29.60;50.20
55634;DHT22;41504;53.162;6.788;2023-09-07T13:06:04;29.60;49.70
55634;DHT22;41504;53.162;6.788;2023-09-07T13:08:35;29.70;49.80
55634;DHT22;41504;53.162;6.788;2023-09-07T13:11:01;29.70;50.20
55634;DHT22;41504;53.162;6.788;2023-09-07T13:13:27;29.80;49.70
55634;DHT22;41504;53.162;6.788;2023-09-07T13:15:57;29.80;49.30
55634;DHT22;41504;53.162;6.788;2023-09-07T13:18:24;29.90;49.00
55634;DHT22;41504;53.162;6.788;2023-09-07T13:20:50;29.90;49.00
55634;DHT22;41504;53.162;6.788;2023-09-07T13:23:20;29.90;48.70
55634;DHT22;41504;53.162;6.788;2023-09-07T13:25:46;30.00;48.50
55634;DHT22;41504;53.162;6.788;2023-09-07T13:28:11;30.00;47.70
55634;DHT22;41504;53.162;6.788;2023-09-07T13:30:37;30.10;47.10
55634;DHT22;41504;53.162;6.788;2023-09-07T13:33:03;30.10;47.40
55634;DHT22;41504;53.162;6.788;2023-09-07T13:35:29;30.10;47.30
55634;DHT22;41504;53.162;6.788;2023-09-07T13:37:55;30.10;47.60
55634;DHT22;41504;53.162;6.788;2023-09-07T13:40:21;30.20;47.60
55634;DHT22;41504;53.162;6.788;2023-09-07T13:42:49;30.20;47.50
55634;DHT22;41504;53.162;6.788;2023-09-07T13:45:15;30.30;47.70
55634;DHT22;41504;53.162;6.788;2023-09-07T13:47:41;30.30;47.10
55634;DHT22;41504;53.162;6.788;2023-09-07T13:50:07;30.40;47.10
55634;DHT22;41504;53.162;6.788;2023-09-07T13:52:33;30.40;47.00
55634;DHT22;41504;53.162;6.788;2023-09-07T13:54:58;30.50;46.90
55634;DHT22;41504;53.162;6.788;2023-09-07T13:57:24;30.60;47.00
55634;DHT22;41504;53.162;6.788;2023-09-07T13:59:50;30.60;47.10
55634;DHT22;41504;53.162;6.788;2023-09-07T14:02:15;30.70;46.40
55634;DHT22;41504;53.162;6.788;2023-09-07T14:04:41;30.60;46.50
55634;DHT22;41504;53.162;6.788;2023-09-07T14:07:07;30.70;46.80
55634;DHT22;41504;53.162;6.788;2023-09-07T14:09:33;30.80;46.70
55634;DHT22;41504;53.162;6.788;2023-09-07T14:11:59;30.80;46.70
55634;DHT22;41504;53.162;6.788;2023-09-07T14:14:25;30.80;46.70
55634;DHT22;41504;53.162;6.788;2023-09-07T14:16:51;30.80;46.60
55634;DHT22;41504;53.162;6.788;2023-09-07T14:19:22;30.80;46.80
55634;DHT22;41504;53.162;6.788;2023-09-07T14:21:48;30.90;46.70
55634;DHT22;41504;53.162;6.788;2023-09-07T14:24:13;30.90;46.90
55634;DHT22;41504;53.162;6.788;2023-09-07T14:26:39;31.00;46.90
55634;DHT22;41504;53.162;6.788;2023-09-07T14:29:05;31.10;47.00
55634;DHT22;41504;53.162;6.788;2023-09-07T14:31:30;31.10;46.80
55634;DHT22;41504;53.162;6.788;2023-09-07T14:33:56;31.20;47.00
55634;DHT22;41504;53.162;6.788;2023-09-07T14:36:22;31.20;46.40
55634;DHT22;41504;53.162;6.788;2023-09-07T14:38:47;31.10;46.50
55634;DHT22;41504;53.162;6.788;2023-09-07T14:41:13;31.10;46.50
55634;DHT22;41504;53.162;6.788;2023-09-07T14:43:48;31.10;46.50
55634;DHT22;41504;53.162;6.788;2023-09-07T14:46:15;31.20;46.50
55634;DHT22;41504;53.162;6.788;2023-09-07T14:48:41;31.20;47.00
55634;DHT22;41504;53.162;6.788;2023-09-07T14:51:07;31.20;46.40
55634;DHT22;41504;53.162;6.788;2023-09-07T14:53:33;31.20;46.50
55634;DHT22;41504;53.162;6.788;2023-09-07T14:55:59;31.20;46.10
55634;DHT22;41504;53.162;6.788;2023-09-07T14:58:25;31.20;46.40
55634;DHT22;41504;53.162;6.788;2023-09-07T15:00:51;31.30;46.70
55634;DHT22;41504;53.162;6.788;2023-09-07T15:03:16;31.30;46.90
55634;DHT22;41504;53.162;6.788;2023-09-07T15:05:42;31.30;46.60
55634;DHT22;41504;53.162;6.788;2023-09-07T15:08:08;31.40;46.70
55634;DHT22;41504;53.162;6.788;2023-09-07T15:10:34;31.40;46.60
55634;DHT22;41504;53.162;6.788;2023-09-07T15:13:00;31.40;46.70
55634;DHT22;41504;53.162;6.788;2023-09-07T15:15:30;31.40;46.50
55634;DHT22;41504;53.162;6.788;2023-09-07T15:17:59;31.40;46.40
55634;DHT22;41504;53.162;6.788;2023-09-07T15:20:25;31.40;46.70
55634;DHT22;41504;53.162;6.788;2023-09-07T15:22:51;31.40;46.70
55634;DHT22;41504;53.162;6.788;2023-09-07T15:25:16;31.40;46.60
55634;DHT22;41504;53.162;6.788;2023-09-07T15:27:45;31.50;46.80
55634;DHT22;41504;53.162;6.788;2023-09-07T15:30:12;31.40;46.60